Athens Ben Epps Airport
KAHN : now visible

Airfield :











YOU CAN JOIN US ON...

 
LOGIN :

Register | Disclaimer

   EN    FR    IT 

 









Legend :    VFR   Marginal VFR   IFR   Intensive IFR   Very Intensive IFR
Visi :
Ceiling :
>= 8 km
>= 3000ft
5 to 8 km
1000 to 3000 ft
1500m to 5 km
500 to 1000 ft
800 to 1500m
200 to 500 ft
< 800m
< 200 ft
Symbols :   Thunderstorms  Fog  Heavy snow  Heavy precipitations  Wind > 20 kt






- Airport Elevation : 808 ft
- IATA code : AHN


KAHN - Athens Ben Epps

CURRENT METAR :
  • 280451Z AUTO 00000KT 10SM OVC021 21/19 A3002 RMK AO2 SLP159 T02110194 402330200

EXPIRED METARs :
  • 280351Z AUTO 00000KT 10SM OVC020 22/19 A3002 RMK AO2 SLP159 T02170189
  • 280251Z AUTO 00000KT 10SM OVC020 21/19 A3001 RMK AO2 SLP156 T02110189 53006

TAF KAHN
Valid from the 28 at 00:00 until the 29 at 00:00 UTC


272320Z 2800/2824 06005KT P6SM VCSH BKN015 OVC025
FM280400 08004KT P6SM VCSH SCT009 OVC015
FM280800 09004KT 6SM BR VCSH OVC005
FM281500 VRB03KT P6SM VCSH BKN010
FM281800 VRB03KT P6SM -SHRA BKN025
FM282000 18004KT P6SM -SHRA BKN040
KZTL FIR / North America



MET'MAP, your aeronautical weather chart ! - Copyright ORBIFLY December 2007 - Disclaimer

ORBIFLY MET'MAP TEAM :

Programming & Development : Alexandra Zaïnal
Concept & original design : Baudouin d'Aumeries
Assistance for programming : Marc-Olivier Méhu
Technical & hardware support : Manuel Goepfert

Contact : metmap@orbifly.com




SOURCES & CREDITS :

   NOAA       Earth
Advisory